地図

経路データ

SID SEASON NUMBER BASIN SUBBASIN NAME ISO_TIME NATURE LAT LON WMO_WIND WMO_PRES WMO_AGENCY TRACK_TYPE DIST2LAND LANDFALL IFLAG USA_AGENCY USA_ATCF_ID USA_LAT USA_LON USA_RECORD USA_STATUS USA_WIND USA_PRES USA_SSHS USA_R34_NE USA_R34_SE USA_R34_SW USA_R34_NW USA_R50_NE USA_R50_SE USA_R50_SW USA_R50_NW USA_R64_NE USA_R64_SE USA_R64_SW USA_R64_NW USA_POCI USA_ROCI USA_RMW USA_EYE TOKYO_LAT TOKYO_LON TOKYO_GRADE TOKYO_WIND TOKYO_PRES TOKYO_R50_DIR TOKYO_R50_LONG TOKYO_R50_SHORT TOKYO_R30_DIR TOKYO_R30_LONG TOKYO_R30_SHORT TOKYO_LAND CMA_LAT CMA_LON CMA_CAT CMA_WIND CMA_PRES HKO_LAT HKO_LON HKO_CAT HKO_WIND HKO_PRES NEWDELHI_LAT NEWDELHI_LON NEWDELHI_GRADE NEWDELHI_WIND NEWDELHI_PRES NEWDELHI_CI NEWDELHI_DP NEWDELHI_POCI REUNION_LAT REUNION_LON REUNION_TYPE REUNION_WIND REUNION_PRES REUNION_TNUM REUNION_CI REUNION_RMW REUNION_R34_NE REUNION_R34_SE REUNION_R34_SW REUNION_R34_NW REUNION_R50_NE REUNION_R50_SE REUNION_R50_SW REUNION_R50_NW REUNION_R64_NE REUNION_R64_SE REUNION_R64_SW REUNION_R64_NW BOM_LAT BOM_LON BOM_TYPE BOM_WIND BOM_PRES BOM_TNUM BOM_CI BOM_RMW BOM_R34_NE BOM_R34_SE BOM_R34_SW BOM_R34_NW BOM_R50_NE BOM_R50_SE BOM_R50_SW BOM_R50_NW BOM_R64_NE BOM_R64_SE BOM_R64_SW BOM_R64_NW BOM_ROCI BOM_POCI BOM_EYE BOM_POS_METHOD BOM_PRES_METHOD NADI_LAT NADI_LON NADI_CAT NADI_WIND NADI_PRES WELLINGTON_LAT WELLINGTON_LON WELLINGTON_WIND WELLINGTON_PRES DS824_LAT DS824_LON DS824_STAGE DS824_WIND DS824_PRES TD9636_LAT TD9636_LON TD9636_STAGE TD9636_WIND TD9636_PRES TD9635_LAT TD9635_LON TD9635_WIND TD9635_PRES TD9635_ROCI NEUMANN_LAT NEUMANN_LON NEUMANN_CLASS NEUMANN_WIND NEUMANN_PRES MLC_LAT MLC_LON MLC_CLASS MLC_WIND MLC_PRES USA_GUST BOM_GUST BOM_GUST_PER REUNION_GUST REUNION_GUST_PER USA_SEAHGT USA_SEARAD_NE USA_SEARAD_SE USA_SEARAD_SW USA_SEARAD_NW STORM_SPEED STORM_DIR
1911181N13134 1911 40 WP MM NOT_NAMED 1911-06-29 16:00:00 NR 13.5000 133.500 main 879 777 __________O___ -1 13.5000 133.500 4 31 281
1911181N13134 1911 40 WP MM NOT_NAMED 1911-06-29 18:00:00 NR 13.7035 132.464 main 777 629 __________P___ -1 13.7035 132.464 4 30 281
1911181N13134 1911 40 WP MM NOT_NAMED 1911-06-29 21:00:00 NR 13.9906 130.951 main 629 497 __________P___ -1 13.9906 130.951 4 29 281
1911181N13134 1911 40 WP MM NOT_NAMED 1911-06-30 00:00:00 NR 14.2423 129.555 main 497 390 __________P___ -1 14.2423 129.555 4 26 280
1911181N13134 1911 40 WP MM NOT_NAMED 1911-06-30 03:00:00 NR 14.4453 128.348 main 390 381 __________P___ -1 14.4453 128.348 4 23 280
1911181N13134 1911 40 WP MM NOT_NAMED 1911-06-30 04:00:00 NR 14.5000 128.000 main 373 332 __________O___ -1 14.5000 128.000 4 19 279
1911181N13134 1911 40 WP MM NOT_NAMED 1911-06-30 06:00:00 NR 14.5895 127.395 main 332 263 __________P___ -1 14.5895 127.395 4 16 278
1911181N13134 1911 40 WP MM NOT_NAMED 1911-06-30 09:00:00 NR 14.6889 126.671 main 263 209 __________P___ -1 14.6889 126.671 4 13 278
1911181N13134 1911 40 WP MM NOT_NAMED 1911-06-30 12:00:00 NR 14.7711 126.092 main 209 171 __________P___ -1 14.7711 126.092 4 11 279
1911181N13134 1911 40 WP MM NOT_NAMED 1911-06-30 15:00:00 NR 14.8628 125.574 main 171 155 __________P___ -1 14.8628 125.574 4 10 281
1911181N13134 1911 40 WP MM NOT_NAMED 1911-06-30 16:00:00 NR 14.9000 125.400 main 155 134 __________O___ -1 14.9000 125.400 4 12 282
1911181N13134 1911 40 WP MM NOT_NAMED 1911-06-30 18:00:00 NR 14.9861 124.978 main 134 119 __________P___ -1 14.9861 124.978 4 12 283
1911181N13134 1911 40 WP MM NOT_NAMED 1911-06-30 21:00:00 NR 15.1343 124.357 main 123 123 __________P___ -1 15.1343 124.357 4 12 285
1911181N13134 1911 40 WP MM NOT_NAMED 1911-07-01 00:00:00 NR 15.3105 123.757 main 149 132 __________P___ -1 15.3105 123.757 4 12 289
1911181N13134 1911 40 WP MM NOT_NAMED 1911-07-01 03:00:00 NR 15.5211 123.184 main 132 108 __________P___ -1 15.5211 123.184 4 12 292
1911181N13134 1911 40 WP MM NOT_NAMED 1911-07-01 04:00:00 NR 15.6000 123.000 main 108 61 __________O___ -1 15.6000 123.000 4 12 297
1911181N13134 1911 40 WP MM NOT_NAMED 1911-07-01 06:00:00 NR 15.7813 122.649 main 61 0 __________P___ -1 15.7813 122.649 4 11 301
1911181N13134 1911 40 WP MM NOT_NAMED 1911-07-01 09:00:00 NR 16.0855 122.148 main 0 0 __________P___ -1 16.0855 122.148 4 11 303
1911181N13134 1911 40 WP MM NOT_NAMED 1911-07-01 12:00:00 NR 16.4035 121.661 main 0 0 __________P___ -1 16.4035 121.661 4 11 303
1911181N13134 1911 40 WP MM NOT_NAMED 1911-07-01 15:00:00 NR 16.7069 121.168 main 0 0 __________P___ -1 16.7069 121.168 4 11 302
1911181N13134 1911 40 WP MM NOT_NAMED 1911-07-01 16:00:00 NR 16.8000 121.000 main 0 0 __________O___ -1 16.8000 121.000 4 11 297
1911181N13134 1911 40 WP MM NOT_NAMED 1911-07-01 18:00:00 NR 16.9664 120.647 main 0 0 __________P___ -1 16.9664 120.647 4 11 295
1911181N13134 1911 40 WP MM NOT_NAMED 1911-07-01 21:00:00 NR 17.1912 120.106 main 31 31 __________P___ -1 17.1912 120.106 4 11 292
1911181N13134 1911 40 WP MM NOT_NAMED 1911-07-02 00:00:00 NR 17.3862 119.552 main 77 87 __________P___ -1 17.3862 119.552 4 11 289
1911181N13134 1911 40 WP MM NOT_NAMED 1911-07-02 03:00:00 NR 17.5515 118.989 main 137 137 __________P___ -1 17.5515 118.989 4 11 287
1911181N13134 1911 40 WP MM NOT_NAMED 1911-07-02 04:00:00 NR 17.6000 118.800 main 159 159 __________O___ -1 17.6000 118.800 4 11 282
1911181N13134 1911 40 WP MM NOT_NAMED 1911-07-02 06:00:00 NR 17.6684 118.414 main 201 201 __________P___ -1 17.6684 118.414 4 11 279
1911181N13134 1911 40 WP MM NOT_NAMED 1911-07-02 09:00:00 NR 17.7454 117.828 main 264 264 __________P___ -1 17.7454 117.828 4 11 278
1911181N13134 1911 40 WP MM NOT_NAMED 1911-07-02 12:00:00 NR 17.8250 117.247 main 323 323 __________P___ -1 17.8250 117.247 4 11 280
1911181N13134 1911 40 WP MM NOT_NAMED 1911-07-02 15:00:00 NR 17.9447 116.682 main 375 380 __________P___ -1 17.9447 116.682 4 11 284
1911181N13134 1911 40 WP MM NOT_NAMED 1911-07-02 16:00:00 NR 18.0000 116.500 main 398 398 __________O___ -1 18.0000 116.500 4 11 292
1911181N13134 1911 40 WP MM NOT_NAMED 1911-07-02 18:00:00 NR 18.1621 116.127 main 446 446 __________P___ -1 18.1621 116.127 4 12 298
1911181N13134 1911 40 WP MM NOT_NAMED 1911-07-02 21:00:00 NR 18.4561 115.585 main 446 400 __________P___ -1 18.4561 115.585 4 12 302
1911181N13134 1911 40 WP MM NOT_NAMED 1911-07-03 00:00:00 NR 18.7803 115.080 main 400 354 __________P___ -1 18.7803 115.080 4 11 306
1911181N13134 1911 40 WP MM NOT_NAMED 1911-07-03 03:00:00 NR 19.1003 114.633 main 354 339 __________P___ -1 19.1003 114.633 4 10 307
1911181N13134 1911 40 WP MM NOT_NAMED 1911-07-03 04:00:00 NR 19.2000 114.500 main 339 310 __________O___ -1 19.2000 114.500 4 8 308
1911181N13134 1911 40 WP MM NOT_NAMED 1911-07-03 06:00:00 NR 19.3611 114.280 main 310 277 __________P___ -1 19.3611 114.280 4 7 310
1911181N13134 1911 40 WP MM NOT_NAMED 1911-07-03 09:00:00 NR 19.5843 114.008 main 277 249 __________P___ -1 19.5843 114.008 4 7 312
1911181N13134 1911 40 WP MM NOT_NAMED 1911-07-03 12:00:00 NR 19.7992 113.764 main 249 218 __________P___ -1 19.7992 113.764 4 6 312
1911181N13134 1911 40 WP MM NOT_NAMED 1911-07-03 15:00:00 NR 20.0216 113.500 main 218 205 __________P___ -1 20.0216 113.500 4 7 311
1911181N13134 1911 40 WP MM NOT_NAMED 1911-07-03 16:00:00 NR 20.1000 113.400 main 205 178 __________O___ -1 20.1000 113.400 4 8 309
1911181N13134 1911 40 WP MM NOT_NAMED 1911-07-03 18:00:00 NR 20.2654 113.174 main 178 143 __________P___ -1 20.2654 113.174 4 9 307
1911181N13134 1911 40 WP MM NOT_NAMED 1911-07-03 21:00:00 NR 20.5318 112.778 main 143 100 __________P___ -1 20.5318 112.778 4 10 305
1911181N13134 1911 40 WP MM NOT_NAMED 1911-07-04 00:00:00 NR 20.8134 112.334 main 100 54 __________P___ -1 20.8134 112.334 4 10 304
1911181N13134 1911 40 WP MM NOT_NAMED 1911-07-04 03:00:00 NR 21.1029 111.861 main 54 35 __________P___ -1 21.1029 111.861 4 11 303
1911181N13134 1911 40 WP MM NOT_NAMED 1911-07-04 04:00:00 NR 21.2000 111.700 main 35 __________O___ -1 21.2000 111.700 4 11 303

デジタル台風データ・検索

IBTrACS Databaseについて

本データベースは、米国NOAAが公開する1842年以降の世界の熱帯低気圧のベストトラックデータアーカイブInternational Best Track Archive for Climate Stewardship (IBTrACS)を、ウェブで閲覧しやすい形式に変換したものです。

最終更新日:2021-10-08